sensor_id;sensor_type;location;lat;lon;timestamp;pressure;altitude;pressure_sealevel;temperature;humidity
43312;BME280;30041;48.300;16.352;2023-02-12T00:01:30;101312.47;;;21.49;39.49
43312;BME280;30041;48.300;16.352;2023-02-12T00:03:55;101313.31;;;21.50;39.21
43312;BME280;30041;48.300;16.352;2023-02-12T00:06:21;101310.81;;;21.48;39.54
43312;BME280;30041;48.300;16.352;2023-02-12T00:08:49;101308.94;;;21.49;39.41
43312;BME280;30041;48.300;16.352;2023-02-12T00:11:17;101318.69;;;21.50;39.50
43312;BME280;30041;48.300;16.352;2023-02-12T00:13:43;101324.50;;;21.47;39.44
43312;BME280;30041;48.300;16.352;2023-02-12T00:16:12;101319.09;;;21.47;39.50
43312;BME280;30041;48.300;16.352;2023-02-12T00:18:38;101317.44;;;21.46;39.37
43312;BME280;30041;48.300;16.352;2023-02-12T00:21:04;101320.97;;;21.46;39.38
43312;BME280;30041;48.300;16.352;2023-02-12T00:23:30;101325.91;;;21.43;39.48
43312;BME280;30041;48.300;16.352;2023-02-12T00:25:56;101328.84;;;21.41;39.39
43312;BME280;30041;48.300;16.352;2023-02-12T00:28:22;101335.06;;;21.42;39.68
43312;BME280;30041;48.300;16.352;2023-02-12T00:30:48;101342.94;;;21.43;39.45
43312;BME280;30041;48.300;16.352;2023-02-12T00:33:13;101334.66;;;21.45;39.47
43312;BME280;30041;48.300;16.352;2023-02-12T00:35:39;101329.25;;;21.45;39.31
43312;BME280;30041;48.300;16.352;2023-02-12T00:38:04;101330.31;;;21.44;39.43
43312;BME280;30041;48.300;16.352;2023-02-12T00:40:30;101335.88;;;21.42;39.46
43312;BME280;30041;48.300;16.352;2023-02-12T00:42:55;101325.28;;;21.41;39.40
43312;BME280;30041;48.300;16.352;2023-02-12T00:45:21;101336.06;;;21.41;39.45
43312;BME280;30041;48.300;16.352;2023-02-12T00:47:46;101338.94;;;21.39;39.61
43312;BME280;30041;48.300;16.352;2023-02-12T00:50:12;101340.78;;;21.39;39.46
43312;BME280;30041;48.300;16.352;2023-02-12T00:52:37;101328.16;;;21.39;39.48
43312;BME280;30041;48.300;16.352;2023-02-12T00:55:03;101336.44;;;21.38;39.50
43312;BME280;30041;48.300;16.352;2023-02-12T00:57:29;101340.78;;;21.39;39.55
43312;BME280;30041;48.300;16.352;2023-02-12T00:59:55;101335.78;;;21.35;39.40
43312;BME280;30041;48.300;16.352;2023-02-12T01:02:20;101338.50;;;21.35;39.47
43312;BME280;30041;48.300;16.352;2023-02-12T01:04:46;101341.00;;;21.37;39.42
43312;BME280;30041;48.300;16.352;2023-02-12T01:07:12;101341.38;;;21.34;39.49
43312;BME280;30041;48.300;16.352;2023-02-12T01:09:37;101341.19;;;21.35;39.55
43312;BME280;30041;48.300;16.352;2023-02-12T01:12:03;101356.72;;;21.33;39.50
43312;BME280;30041;48.300;16.352;2023-02-12T01:14:29;101350.31;;;21.34;39.54
43312;BME280;30041;48.300;16.352;2023-02-12T01:16:55;101361.28;;;21.33;39.46
43312;BME280;30041;48.300;16.352;2023-02-12T01:19:20;101376.84;;;21.31;39.52
43312;BME280;30041;48.300;16.352;2023-02-12T01:21:46;101357.97;;;21.31;39.53
43312;BME280;30041;48.300;16.352;2023-02-12T01:24:12;101364.19;;;21.31;39.62
43312;BME280;30041;48.300;16.352;2023-02-12T01:26:37;101358.78;;;21.31;39.49
43312;BME280;30041;48.300;16.352;2023-02-12T01:29:05;101347.16;;;21.31;39.50
43312;BME280;30041;48.300;16.352;2023-02-12T01:31:33;101362.53;;;21.30;39.45
43312;BME280;30041;48.300;16.352;2023-02-12T01:34:00;101368.94;;;21.29;39.47
43312;BME280;30041;48.300;16.352;2023-02-12T01:36:27;101377.66;;;21.31;39.50
43312;BME280;30041;48.300;16.352;2023-02-12T01:38:54;101381.59;;;21.29;39.52
43312;BME280;30041;48.300;16.352;2023-02-12T01:41:29;101395.25;;;21.27;39.56
43312;BME280;30041;48.300;16.352;2023-02-12T01:44:17;101389.88;;;21.27;39.56
43312;BME280;30041;48.300;16.352;2023-02-12T01:46:44;101395.25;;;21.27;39.54
43312;BME280;30041;48.300;16.352;2023-02-12T01:49:34;101391.72;;;21.27;39.29
43312;BME280;30041;48.300;16.352;2023-02-12T01:52:09;101395.66;;;21.24;39.40
43312;BME280;30041;48.300;16.352;2023-02-12T01:54:38;101390.25;;;21.24;39.54
43312;BME280;30041;48.300;16.352;2023-02-12T01:57:07;101387.38;;;21.26;39.48
43312;BME280;30041;48.300;16.352;2023-02-12T01:59:34;101383.81;;;21.25;39.48
43312;BME280;30041;48.300;16.352;2023-02-12T02:02:02;101388.22;;;21.26;39.48
43312;BME280;30041;48.300;16.352;2023-02-12T02:04:31;101383.22;;;21.23;39.47
43312;BME280;30041;48.300;16.352;2023-02-12T02:06:58;101391.09;;;21.25;39.46
43312;BME280;30041;48.300;16.352;2023-02-12T02:09:26;101392.97;;;21.24;39.51
43312;BME280;30041;48.300;16.352;2023-02-12T02:11:52;101375.94;;;21.24;39.37
43312;BME280;30041;48.300;16.352;2023-02-12T02:14:18;101382.16;;;21.24;39.43
43312;BME280;30041;48.300;16.352;2023-02-12T02:20:36;101375.31;;;21.22;39.51
43312;BME280;30041;48.300;16.352;2023-02-12T02:22:46;101376.13;;;21.22;39.61
43312;BME280;30041;48.300;16.352;2023-02-12T02:28:32;101381.94;;;21.19;39.54
43312;BME280;30041;48.300;16.352;2023-02-12T02:34:09;101383.75;;;21.19;39.63
43312;BME280;30041;48.300;16.352;2023-02-12T02:39:38;101367.41;;;21.20;39.43
43312;BME280;30041;48.300;16.352;2023-02-12T02:42:24;101376.53;;;21.19;39.24
43312;BME280;30041;48.300;16.352;2023-02-12T02:44:54;101367.81;;;21.17;39.26
43312;BME280;30041;48.300;16.352;2023-02-12T02:47:52;101371.50;;;21.16;39.37
43312;BME280;30041;48.300;16.352;2023-02-12T02:50:20;101383.75;;;21.19;39.51
43312;BME280;30041;48.300;16.352;2023-02-12T02:52:51;101373.84;;;21.19;39.36
43312;BME280;30041;48.300;16.352;2023-02-12T02:55:21;101388.31;;;21.18;39.49
43312;BME280;30041;48.300;16.352;2023-02-12T02:57:59;101383.75;;;21.19;39.37
43312;BME280;30041;48.300;16.352;2023-02-12T03:00:37;101382.28;;;21.16;39.51
43312;BME280;30041;48.300;16.352;2023-02-12T03:03:35;101387.91;;;21.14;39.39
43312;BME280;30041;48.300;16.352;2023-02-12T03:06:13;101394.94;;;21.15;39.44
43312;BME280;30041;48.300;16.352;2023-02-12T03:08:55;101392.44;;;21.14;39.37
43312;BME280;30041;48.300;16.352;2023-02-12T03:11:32;101398.69;;;21.14;39.38
43312;BME280;30041;48.300;16.352;2023-02-12T03:16:58;101410.47;;;21.13;39.61
43312;BME280;30041;48.300;16.352;2023-02-12T03:19:29;101422.09;;;21.14;39.43
43312;BME280;30041;48.300;16.352;2023-02-12T03:22:06;101433.28;;;21.11;39.36
43312;BME280;30041;48.300;16.352;2023-02-12T03:24:33;101440.31;;;21.12;39.45
43312;BME280;30041;48.300;16.352;2023-02-12T03:27:07;101443.00;;;21.12;39.36
43312;BME280;30041;48.300;16.352;2023-02-12T03:29:34;101448.41;;;21.12;39.11
43312;BME280;30041;48.300;16.352;2023-02-12T03:37:29;101442.41;;;21.10;39.53
43312;BME280;30041;48.300;16.352;2023-02-12T03:40:10;101453.19;;;21.10;39.33
43312;BME280;30041;48.300;16.352;2023-02-12T03:42:57;101453.38;;;21.08;39.49
43312;BME280;30041;48.300;16.352;2023-02-12T03:45:48;101454.59;;;21.06;39.54
43312;BME280;30041;48.300;16.352;2023-02-12T03:48:27;101463.31;;;21.08;39.44
43312;BME280;30041;48.300;16.352;2023-02-12T03:51:03;101464.97;;;21.09;39.52
43312;BME280;30041;48.300;16.352;2023-02-12T03:53:31;101473.88;;;21.09;39.25
43312;BME280;30041;48.300;16.352;2023-02-12T03:56:14;101484.03;;;21.07;39.57
43312;BME280;30041;48.300;16.352;2023-02-12T03:58:43;101489.25;;;21.09;39.36
43312;BME280;30041;48.300;16.352;2023-02-12T04:01:10;101475.94;;;21.07;39.43
43312;BME280;30041;48.300;16.352;2023-02-12T04:03:37;101495.84;;;21.06;39.38
43312;BME280;30041;48.300;16.352;2023-02-12T04:06:04;101495.03;;;21.06;39.40
43312;BME280;30041;48.300;16.352;2023-02-12T04:08:30;101494.16;;;21.05;39.35
43312;BME280;30041;48.300;16.352;2023-02-12T04:14:09;101512.22;;;21.05;39.44
43312;BME280;30041;48.300;16.352;2023-02-12T04:16:46;101510.34;;;21.05;39.38
43312;BME280;30041;48.300;16.352;2023-02-12T04:19:19;101509.50;;;21.05;39.32
43312;BME280;30041;48.300;16.352;2023-02-12T04:21:58;101502.25;;;21.05;39.45
43312;BME280;30041;48.300;16.352;2023-02-12T04:24:36;101500.78;;;21.03;39.36
43312;BME280;30041;48.300;16.352;2023-02-12T04:27:32;101517.34;;;21.00;39.47
43312;BME280;30041;48.300;16.352;2023-02-12T04:30:06;101513.59;;;21.01;39.35
43312;BME280;30041;48.300;16.352;2023-02-12T04:32:43;101526.91;;;21.02;39.27
43312;BME280;30041;48.300;16.352;2023-02-12T04:38:52;101523.78;;;20.99;39.21
43312;BME280;30041;48.300;16.352;2023-02-12T04:40:58;101520.69;;;21.02;39.37
43312;BME280;30041;48.300;16.352;2023-02-12T04:43:28;101519.00;;;21.01;39.45
43312;BME280;30041;48.300;16.352;2023-02-12T04:45:54;101512.78;;;21.00;39.38
43312;BME280;30041;48.300;16.352;2023-02-12T04:48:20;101514.81;;;20.98;39.39
43312;BME280;30041;48.300;16.352;2023-02-12T04:50:46;101519.00;;;21.01;39.34
43312;BME280;30041;48.300;16.352;2023-02-12T04:53:12;101531.66;;;21.00;39.41
43312;BME280;30041;48.300;16.352;2023-02-12T04:55:37;101529.78;;;21.01;39.33
43312;BME280;30041;48.300;16.352;2023-02-12T04:58:04;101547.81;;;21.00;39.34
43312;BME280;30041;48.300;16.352;2023-02-12T05:00:29;101538.06;;;20.99;39.42
43312;BME280;30041;48.300;16.352;2023-02-12T05:02:55;101538.72;;;21.01;39.33
43312;BME280;30041;48.300;16.352;2023-02-12T05:05:20;101544.13;;;21.01;39.20
43312;BME280;30041;48.300;16.352;2023-02-12T05:07:46;101553.69;;;21.04;39.22
43312;BME280;30041;48.300;16.352;2023-02-12T05:10:13;101550.34;;;21.02;39.19
43312;BME280;30041;48.300;16.352;2023-02-12T05:12:39;101541.22;;;21.03;39.15
43312;BME280;30041;48.300;16.352;2023-02-12T05:15:04;101555.53;;;21.03;39.27
43312;BME280;30041;48.300;16.352;2023-02-12T05:17:30;101554.69;;;21.03;39.31
43312;BME280;30041;48.300;16.352;2023-02-12T05:19:55;101548.84;;;20.99;39.31
43312;BME280;30041;48.300;16.352;2023-02-12T05:22:21;101558.41;;;21.02;39.19
43312;BME280;30041;48.300;16.352;2023-02-12T05:24:46;101565.47;;;21.03;39.25
43312;BME280;30041;48.300;16.352;2023-02-12T05:27:12;101575.81;;;20.99;39.29
43312;BME280;30041;48.300;16.352;2023-02-12T05:29:38;101579.50;;;20.98;39.32
43312;BME280;30041;48.300;16.352;2023-02-12T05:32:03;101578.69;;;20.98;39.47
43312;BME280;30041;48.300;16.352;2023-02-12T05:34:29;101578.69;;;20.98;39.14
43312;BME280;30041;48.300;16.352;2023-02-12T05:36:54;101584.06;;;20.98;39.28
43312;BME280;30041;48.300;16.352;2023-02-12T05:39:20;101583.44;;;20.96;39.40
43312;BME280;30041;48.300;16.352;2023-02-12T05:41:46;101586.78;;;20.98;39.33
43312;BME280;30041;48.300;16.352;2023-02-12T05:44:11;101590.28;;;20.98;39.26
43312;BME280;30041;48.300;16.352;2023-02-12T05:46:37;101596.72;;;20.97;39.42
43312;BME280;30041;48.300;16.352;2023-02-12T05:49:03;101594.84;;;20.98;39.26
43312;BME280;30041;48.300;16.352;2023-02-12T05:51:29;101594.84;;;20.98;39.30
43312;BME280;30041;48.300;16.352;2023-02-12T05:53:58;101597.56;;;20.98;39.35
43312;BME280;30041;48.300;16.352;2023-02-12T05:56:29;101608.34;;;20.98;39.30
43312;BME280;30041;48.300;16.352;2023-02-12T05:59:03;101610.84;;;20.99;39.34
43312;BME280;30041;48.300;16.352;2023-02-12T06:01:34;101618.13;;;20.99;39.23
43312;BME280;30041;48.300;16.352;2023-02-12T06:04:01;101620.59;;;21.00;39.24
43312;BME280;30041;48.300;16.352;2023-02-12T06:06:28;101625.16;;;21.00;39.24
43312;BME280;30041;48.300;16.352;2023-02-12T06:08:54;101628.91;;;20.99;39.33
43312;BME280;30041;48.300;16.352;2023-02-12T06:11:20;101628.91;;;20.99;39.20
43312;BME280;30041;48.300;16.352;2023-02-12T06:13:47;101634.28;;;20.99;39.13
43312;BME280;30041;48.300;16.352;2023-02-12T06:16:20;101637.16;;;20.97;39.35
43312;BME280;30041;48.300;16.352;2023-02-12T06:18:46;101638.81;;;20.98;39.32
43312;BME280;30041;48.300;16.352;2023-02-12T06:21:12;101648.59;;;20.99;39.24
43312;BME280;30041;48.300;16.352;2023-02-12T06:23:37;101654.16;;;20.98;39.29
43312;BME280;30041;48.300;16.352;2023-02-12T06:26:03;101663.06;;;20.98;39.35
43312;BME280;30041;48.300;16.352;2023-02-12T06:28:28;101667.63;;;20.98;39.12
43312;BME280;30041;48.300;16.352;2023-02-12T06:30:54;101677.41;;;20.99;39.30
43312;BME280;30041;48.300;16.352;2023-02-12T06:33:19;101674.06;;;20.97;39.35
43312;BME280;30041;48.300;16.352;2023-02-12T06:35:45;101677.41;;;20.99;39.27
43312;BME280;30041;48.300;16.352;2023-02-12T06:38:11;101670.34;;;20.98;39.26
43312;BME280;30041;48.300;16.352;2023-02-12T06:40:36;101675.72;;;20.98;39.36
43312;BME280;30041;48.300;16.352;2023-02-12T06:43:02;101682.97;;;20.97;39.23
43312;BME280;30041;48.300;16.352;2023-02-12T06:45:27;101690.69;;;21.00;39.14
43312;BME280;30041;48.300;16.352;2023-02-12T06:47:53;101689.19;;;20.98;39.33
43312;BME280;30041;48.300;16.352;2023-02-12T06:50:18;101688.19;;;20.99;39.26
43312;BME280;30041;48.300;16.352;2023-02-12T06:52:44;101682.81;;;20.99;39.21
43312;BME280;30041;48.300;16.352;2023-02-12T06:55:09;101688.19;;;20.99;39.20
43312;BME280;30041;48.300;16.352;2023-02-12T06:57:35;101689.84;;;21.00;39.12
43312;BME280;30041;48.300;16.352;2023-02-12T07:00:01;101692.72;;;20.98;39.22
43312;BME280;30041;48.300;16.352;2023-02-12T07:02:26;101696.28;;;20.99;39.35
43312;BME280;30041;48.300;16.352;2023-02-12T07:04:52;101693.59;;;20.99;39.40
43312;BME280;30041;48.300;16.352;2023-02-12T07:07:17;101701.03;;;20.97;39.41
43312;BME280;30041;48.300;16.352;2023-02-12T07:09:43;101697.94;;;21.00;39.25
43312;BME280;30041;48.300;16.352;2023-02-12T07:12:08;101701.28;;;21.02;39.12
43312;BME280;30041;48.300;16.352;2023-02-12T07:14:34;101693.38;;;21.00;39.11
43312;BME280;30041;48.300;16.352;2023-02-12T07:16:59;101693.94;;;20.96;39.47
43312;BME280;30041;48.300;16.352;2023-02-12T07:19:25;101694.78;;;20.96;39.33
43312;BME280;30041;48.300;16.352;2023-02-12T07:21:50;101697.94;;;21.00;39.14
43312;BME280;30041;48.300;16.352;2023-02-12T07:24:16;101693.59;;;20.99;39.27
43312;BME280;30041;48.300;16.352;2023-02-12T07:26:41;101696.06;;;21.00;39.35
43312;BME280;30041;48.300;16.352;2023-02-12T07:29:07;101701.69;;;20.99;39.48
43312;BME280;30041;48.300;16.352;2023-02-12T07:31:32;101705.19;;;20.99;39.27
43312;BME280;30041;48.300;16.352;2023-02-12T07:33:59;101699.16;;;20.97;39.26
43312;BME280;30041;48.300;16.352;2023-02-12T07:36:27;101715.16;;;20.99;39.28
43312;BME280;30041;48.300;16.352;2023-02-12T07:38:54;101715.31;;;20.97;39.27
43312;BME280;30041;48.300;16.352;2023-02-12T07:41:25;101709.94;;;20.97;39.29
43312;BME280;30041;48.300;16.352;2023-02-12T07:43:56;101705.38;;;20.98;39.23
43312;BME280;30041;48.300;16.352;2023-02-12T07:46:28;101711.81;;;20.97;39.51
43312;BME280;30041;48.300;16.352;2023-02-12T07:48:55;101718.84;;;20.98;39.26
43312;BME280;30041;48.300;16.352;2023-02-12T07:51:21;101726.28;;;20.96;39.36
43312;BME280;30041;48.300;16.352;2023-02-12T07:53:47;101729.63;;;20.98;39.43
43312;BME280;30041;48.300;16.352;2023-02-12T07:56:21;101737.72;;;20.98;39.34
43312;BME280;30041;48.300;16.352;2023-02-12T07:58:49;101740.41;;;20.98;39.39
43312;BME280;30041;48.300;16.352;2023-02-12T08:01:19;101740.25;;;20.99;39.31
43312;BME280;30041;48.300;16.352;2023-02-12T08:03:45;101734.84;;;20.99;39.25
43312;BME280;30041;48.300;16.352;2023-02-12T08:06:15;101736.91;;;20.97;39.37
43312;BME280;30041;48.300;16.352;2023-02-12T08:08:41;101737.56;;;20.99;39.38
43312;BME280;30041;48.300;16.352;2023-02-12T08:11:08;101735.69;;;21.00;39.20
43312;BME280;30041;48.300;16.352;2023-02-12T08:13:35;101734.66;;;21.01;39.38
43312;BME280;30041;48.300;16.352;2023-02-12T08:16:03;101728.63;;;20.99;39.48
43312;BME280;30041;48.300;16.352;2023-02-12T08:18:30;101740.25;;;20.99;39.43
43312;BME280;30041;48.300;16.352;2023-02-12T08:21:11;101733.16;;;20.98;39.46
43312;BME280;30041;48.300;16.352;2023-02-12T08:23:38;101733.00;;;21.00;39.28
43312;BME280;30041;48.300;16.352;2023-02-12T08:26:15;101741.25;;;20.98;39.41
43312;BME280;30041;48.300;16.352;2023-02-12T08:28:44;101740.25;;;20.99;39.31
43312;BME280;30041;48.300;16.352;2023-02-12T08:31:13;101736.72;;;20.99;39.32
43312;BME280;30041;48.300;16.352;2023-02-12T08:33:39;101743.94;;;20.98;39.38
43312;BME280;30041;48.300;16.352;2023-02-12T08:36:07;101753.06;;;20.97;39.16
43312;BME280;30041;48.300;16.352;2023-02-12T08:38:33;101747.69;;;20.97;39.40
43312;BME280;30041;48.300;16.352;2023-02-12T08:41:12;101757.25;;;21.00;39.27
43312;BME280;30041;48.300;16.352;2023-02-12T08:43:39;101762.66;;;21.00;39.47
43312;BME280;30041;48.300;16.352;2023-02-12T08:46:09;101757.44;;;20.98;39.29
43312;BME280;30041;48.300;16.352;2023-02-12T08:48:35;101762.47;;;21.01;39.41
43312;BME280;30041;48.300;16.352;2023-02-12T08:51:18;101780.84;;;20.98;39.49
43312;BME280;30041;48.300;16.352;2023-02-12T08:53:45;101782.22;;;20.93;39.88
43312;BME280;30041;48.300;16.352;2023-02-12T08:56:13;101781.78;;;20.90;40.37
43312;BME280;30041;48.300;16.352;2023-02-12T08:58:39;101778.22;;;20.89;40.47
43312;BME280;30041;48.300;16.352;2023-02-12T09:01:12;101786.78;;;20.93;40.74
43312;BME280;30041;48.300;16.352;2023-02-12T09:03:38;101795.06;;;20.91;40.75
43312;BME280;30041;48.300;16.352;2023-02-12T09:06:05;101796.75;;;20.92;40.84
43312;BME280;30041;48.300;16.352;2023-02-12T09:08:31;101790.53;;;20.92;41.19
43312;BME280;30041;48.300;16.352;2023-02-12T09:10:57;101800.44;;;20.91;41.16
43312;BME280;30041;48.300;16.352;2023-02-12T09:13:24;101800.28;;;20.93;41.24
43312;BME280;30041;48.300;16.352;2023-02-12T09:15:49;101801.31;;;20.92;41.35
43312;BME280;30041;48.300;16.352;2023-02-12T09:18:15;101801.31;;;20.92;41.30
43312;BME280;30041;48.300;16.352;2023-02-12T09:20:42;101810.41;;;20.91;41.51
43312;BME280;30041;48.300;16.352;2023-02-12T09:23:10;101806.69;;;20.92;41.74
43312;BME280;30041;48.300;16.352;2023-02-12T09:25:43;101805.84;;;20.91;41.76
43312;BME280;30041;48.300;16.352;2023-02-12T09:28:10;101813.75;;;20.93;41.53
43312;BME280;30041;48.300;16.352;2023-02-12T09:30:37;101814.78;;;20.92;41.72
43312;BME280;30041;48.300;16.352;2023-02-12T09:33:04;101809.38;;;20.92;41.73
43312;BME280;30041;48.300;16.352;2023-02-12T09:35:33;101812.09;;;20.92;41.77
43312;BME280;30041;48.300;16.352;2023-02-12T09:37:59;101813.75;;;20.93;41.88
43312;BME280;30041;48.300;16.352;2023-02-12T09:40:52;101817.47;;;20.92;41.89
43312;BME280;30041;48.300;16.352;2023-02-12T09:43:39;101818.47;;;20.91;42.05
43312;BME280;30041;48.300;16.352;2023-02-12T09:48:51;101817.47;;;20.92;41.96
43312;BME280;30041;48.300;16.352;2023-02-12T09:51:19;101820.16;;;20.92;42.04
43312;BME280;30041;48.300;16.352;2023-02-12T09:53:47;101817.47;;;20.92;42.01
43312;BME280;30041;48.300;16.352;2023-02-12T09:56:17;101820.16;;;20.92;41.84
43312;BME280;30041;48.300;16.352;2023-02-12T09:58:50;101822.00;;;20.91;42.32
43312;BME280;30041;48.300;16.352;2023-02-12T10:01:18;101824.34;;;20.94;42.13
43312;BME280;30041;48.300;16.352;2023-02-12T10:03:45;101821.84;;;20.93;42.03
43312;BME280;30041;48.300;16.352;2023-02-12T10:06:21;101817.28;;;20.93;42.24
43312;BME280;30041;48.300;16.352;2023-02-12T10:19:54;101822.88;;;20.92;42.25
43312;BME280;30041;48.300;16.352;2023-02-12T10:22:36;101824.03;;;20.89;42.12
43312;BME280;30041;48.300;16.352;2023-02-12T10:27:56;101802.69;;;20.88;42.17
43312;BME280;30041;48.300;16.352;2023-02-12T10:30:26;101794.59;;;20.88;42.12
43312;BME280;30041;48.300;16.352;2023-02-12T10:33:01;101797.47;;;20.86;41.98
43312;BME280;30041;48.300;16.352;2023-02-12T10:35:28;101796.44;;;20.87;41.64
43312;BME280;30041;48.300;16.352;2023-02-12T10:38:13;101793.44;;;20.82;41.86
43312;BME280;30041;48.300;16.352;2023-02-12T10:40:43;101796.81;;;20.84;41.76
43312;BME280;30041;48.300;16.352;2023-02-12T10:43:11;101797.28;;;20.88;41.51
43312;BME280;30041;48.300;16.352;2023-02-12T10:45:38;101792.06;;;20.86;41.56
43312;BME280;30041;48.300;16.352;2023-02-12T10:48:08;101790.22;;;20.87;41.35
43312;BME280;30041;48.300;16.352;2023-02-12T10:53:32;101797.75;;;20.91;41.03
43312;BME280;30041;48.300;16.352;2023-02-12T10:56:12;101800.44;;;20.91;41.11
43312;BME280;30041;48.300;16.352;2023-02-12T10:58:49;101792.84;;;20.95;41.03
43312;BME280;30041;48.300;16.352;2023-02-12T11:01:41;101792.19;;;20.93;41.08
43312;BME280;30041;48.300;16.352;2023-02-12T11:09:43;101779.00;;;20.98;41.21
43312;BME280;30041;48.300;16.352;2023-02-12T11:14:48;101781.69;;;20.98;41.34
43312;BME280;30041;48.300;16.352;2023-02-12T11:17:23;101775.47;;;20.98;41.08
43312;BME280;30041;48.300;16.352;2023-02-12T11:20:06;101773.81;;;20.97;41.41
43312;BME280;30041;48.300;16.352;2023-02-12T11:22:32;101768.22;;;20.98;41.57
43312;BME280;30041;48.300;16.352;2023-02-12T11:25:01;101761.81;;;20.99;41.33
43312;BME280;30041;48.300;16.352;2023-02-12T11:27:29;101787.28;;;20.97;41.30
43312;BME280;30041;48.300;16.352;2023-02-12T11:30:15;101769.41;;;20.96;41.26
43312;BME280;30041;48.300;16.352;2023-02-12T11:32:42;101764.69;;;20.98;41.10
43312;BME280;30041;48.300;16.352;2023-02-12T11:35:14;101779.91;;;20.90;41.06
43312;BME280;30041;48.300;16.352;2023-02-12T11:37:45;101775.53;;;20.89;40.72
43312;BME280;30041;48.300;16.352;2023-02-12T11:40:23;101776.19;;;20.91;40.68
43312;BME280;30041;48.300;16.352;2023-02-12T11:42:55;101779.38;;;20.95;40.26
43312;BME280;30041;48.300;16.352;2023-02-12T11:45:29;101773.59;;;20.98;40.53
43312;BME280;30041;48.300;16.352;2023-02-12T11:47:56;101775.94;;;21.01;40.49
43312;BME280;30041;48.300;16.352;2023-02-12T11:50:30;101771.09;;;20.97;40.63
43312;BME280;30041;48.300;16.352;2023-02-12T11:52:59;101776.13;;;21.00;40.52
43312;BME280;30041;48.300;16.352;2023-02-12T11:55:31;101779.84;;;20.99;40.61
43312;BME280;30041;48.300;16.352;2023-02-12T11:58:03;101776.66;;;20.95;40.56
43312;BME280;30041;48.300;16.352;2023-02-12T12:00:38;101775.47;;;20.98;40.75
43312;BME280;30041;48.300;16.352;2023-02-12T12:03:24;101773.97;;;20.95;40.63
43312;BME280;30041;48.300;16.352;2023-02-12T12:06:02;101778.53;;;20.94;40.75
43312;BME280;30041;48.300;16.352;2023-02-12T12:08:41;101778.34;;;20.96;40.69
43312;BME280;30041;48.300;16.352;2023-02-12T12:11:28;101775.84;;;20.94;40.64
43312;BME280;30041;48.300;16.352;2023-02-12T12:14:15;101771.28;;;20.95;40.67
43312;BME280;30041;48.300;16.352;2023-02-12T12:16:53;101768.59;;;20.95;40.68
43312;BME280;30041;48.300;16.352;2023-02-12T12:19:27;101767.75;;;20.94;40.73
43312;BME280;30041;48.300;16.352;2023-02-12T12:22:02;101772.78;;;20.98;40.57
43312;BME280;30041;48.300;16.352;2023-02-12T12:24:39;101764.69;;;20.98;40.71
43312;BME280;30041;48.300;16.352;2023-02-12T12:27:14;101760.31;;;20.97;40.67
43312;BME280;30041;48.300;16.352;2023-02-12T12:29:54;101752.59;;;20.93;40.59
43312;BME280;30041;48.300;16.352;2023-02-12T12:32:24;101751.19;;;20.98;40.79
43312;BME280;30041;48.300;16.352;2023-02-12T12:34:51;101747.84;;;20.96;40.62
43312;BME280;30041;48.300;16.352;2023-02-12T12:54:54;101750.81;;;21.01;40.74
43312;BME280;30041;48.300;16.352;2023-02-12T13:00:59;101752.78;;;20.92;40.96
43312;BME280;30041;48.300;16.352;2023-02-12T13:06:13;101751.19;;;20.98;40.76
43312;BME280;30041;48.300;16.352;2023-02-12T13:14:46;101751.31;;;21.04;40.72
43312;BME280;30041;48.300;16.352;2023-02-12T13:17:28;101751.78;;;21.08;40.67
43312;BME280;30041;48.300;16.352;2023-02-12T13:22:56;101754.50;;;21.08;40.73
43312;BME280;30041;48.300;16.352;2023-02-12T13:25:30;101754.59;;;21.14;40.55
43312;BME280;30041;48.300;16.352;2023-02-12T13:27:59;101753.94;;;21.12;40.65
43312;BME280;30041;48.300;16.352;2023-02-12T13:30:32;101760.63;;;21.17;40.77
43312;BME280;30041;48.300;16.352;2023-02-12T13:33:16;101754.59;;;21.14;40.64
43312;BME280;30041;48.300;16.352;2023-02-12T13:35:48;101753.16;;;21.19;40.64
43312;BME280;30041;48.300;16.352;2023-02-12T13:38:23;101755.41;;;21.15;40.63
43312;BME280;30041;48.300;16.352;2023-02-12T13:40:59;101757.56;;;21.20;40.63
43312;BME280;30041;48.300;16.352;2023-02-12T13:43:35;101754.88;;;21.20;40.47
43312;BME280;30041;48.300;16.352;2023-02-12T13:49:03;101760.09;;;21.21;40.55
43312;BME280;30041;48.300;16.352;2023-02-12T13:56:53;101758.50;;;21.27;40.43
43312;BME280;30041;48.300;16.352;2023-02-12T14:01:55;101756.63;;;21.27;40.36
43312;BME280;30041;48.300;16.352;2023-02-12T14:06:58;101753.75;;;21.29;40.51
43312;BME280;30041;48.300;16.352;2023-02-12T14:09:36;101750.88;;;21.30;40.27
43312;BME280;30041;48.300;16.352;2023-02-12T14:12:11;101747.16;;;21.31;40.48
43312;BME280;30041;48.300;16.352;2023-02-12T14:14:41;101754.22;;;21.32;40.30
43312;BME280;30041;48.300;16.352;2023-02-12T14:27:54;101746.13;;;21.32;40.45
43312;BME280;30041;48.300;16.352;2023-02-12T14:30:31;101739.53;;;21.35;40.31
43312;BME280;30041;48.300;16.352;2023-02-12T14:33:09;101742.69;;;21.39;40.38
43312;BME280;30041;48.300;16.352;2023-02-12T14:40:50;101743.88;;;21.36;41.29
43312;BME280;30041;48.300;16.352;2023-02-12T14:43:30;101745.59;;;21.37;41.38
43312;BME280;30041;48.300;16.352;2023-02-12T14:48:54;101746.41;;;21.38;41.57
43312;BME280;30041;48.300;16.352;2023-02-12T14:51:36;101764.94;;;21.41;41.39
43312;BME280;30041;48.300;16.352;2023-02-12T14:57:00;101761.03;;;21.43;41.71
43312;BME280;30041;48.300;16.352;2023-02-12T14:59:27;101761.91;;;21.44;41.61